Sunday, July 22, 2018, 8:40 AM EDT
Back to Local

KGED, Georgetown Sussex Co Airport

Location: Georgetown, DE, United States Lat: 38.683
Local Time: 8:40 AM EDT (12:40 GMT) Lon: -75.367
Time Zone: US/Eastern Elev: 52 ft

Show me the last for .
Show Decoded

2018-07-22 07:54 METAR KGED 221154Z AUTO 18005KT 10SM FEW010 SCT016 OVC039 22/21 A2985 RMK AO2
                 SLP108 60000 70198 T02170206 10222 20211 53020 $ =
2018-07-22 07:39 METAR KGED 221139Z AUTO 20006KT 10SM BKN015 OVC037 22/20 A2985 RMK AO2 T02170200
                 $ =
2018-07-22 07:06 METAR KGED 221106Z AUTO 18007KT 10SM OVC011 21/20 A2983 RMK AO2 T02110200 $ =
2018-07-22 06:54 METAR KGED 221054Z AUTO 18008KT 10SM OVC009 21/20 A2982 RMK AO2 CIG 008V012
                 SLP098 T02110200 $ =
2018-07-22 06:23 METAR KGED 221023Z AUTO 20008KT 10SM BKN009 OVC014 21/20 A2981 RMK AO2 CIG
                 007V012 T02110200 $ =
2018-07-22 06:15 METAR KGED 221015Z AUTO 19007KT 10SM SCT009 BKN014 OVC021 21/20 A2981 RMK AO2
                 T02110200 $ =
2018-07-22 05:54 METAR KGED 220954Z AUTO 21011KT 10SM BKN015 OVC021 21/20 A2980 RMK AO2 SLP089
                 T02110200 $ =
2018-07-22 05:52 METAR KGED 220952Z AUTO 21010KT 10SM BKN015 OVC021 21/20 A2980 RMK AO2 $ =
2018-07-22 05:28 METAR KGED 220928Z AUTO 21013KT 10SM OVC011 21/21 A2978 RMK AO2 T02110211 $ =
2018-07-22 04:54 METAR KGED 220854Z AUTO 21012KT 10SM OVC008 21/21 A2976 RMK AO2 CIG 006V011
                 SLP077 60000 T02110211 53036 $ =
2018-07-22 03:54 METAR KGED 220754Z AUTO 21014G19KT 5SM BR OVC007 21/21 A2972 RMK AO2 RAE08B36E43
                 SLP064 P0000 T02110211 $ =
2018-07-22 02:54 METAR KGED 220654Z AUTO 19016KT 4SM -RA BR OVC007 22/22 A2969 RMK AO2 RAB35 CIG
                 004V009 SLP052 P0000 T02170217 $ =
2018-07-22 01:54 METAR KGED 220554Z AUTO 19014G24KT 10SM OVC008 22/22 A2965 RMK AO2 SLP041 60015
                 T02220217 10239 20222 53026 $ =
2018-07-22 00:54 METAR KGED 220454Z AUTO 17016G24KT 9SM BKN009 OVC012 23/23 A2963 RMK AO2 PK WND
                 17026/0419 RAB03E22 SLP031 P0001 T02330233 402390183 $ =
2018-07-21 23:54 METAR KGED 220354Z AUTO 17011KT 10SM BKN007 OVC012 24/24 A2959 RMK AO2
                 RAE02B28E44 SLP018 P0001 T02390239 $ =
2018-07-21 22:54 METAR KGED 220254Z AUTO 10009KT 4SM -RA BR BKN007 OVC011 24/24 A2958 RMK AO2 PK
                 WND 09031/0158 CIG 005V008 SLP015 P0001 60013 T02390239 58046 $ =
2018-07-21 21:54 METAR KGED 220154Z AUTO 10017G25KT 4SM -RA OVC008 23/ A2963 RMK AO2 PK WND
                 09030/0135 CIG 006V010 SLP031 P0009 T0233 $ =
2018-07-21 20:54 METAR KGED 220054Z AUTO 08017G24KT 7SM -RA BKN009 OVC014 23/ A2967 RMK AO2 PK
                 WND 07026/0004 CIG 007V011 SLP046 P0003 T0233 $ =
2018-07-21 19:54 METAR KGED 212354Z AUTO 09016G25KT 5SM -RA BR BKN013 OVC020 23/22 A2971 RMK AO2
                 PK WND 08026/2340 RAB04 SLP061 P0005 60101 T02280222 10239 20228 56030 =
2018-07-21 19:49 METAR KGED 212349Z AUTO 08015G26KT 3SM -RA BR BKN013 BKN020 OVC025 23/22 A2972
                 RMK AO2 PK WND 08026/2340 RAB04 P0004 =
2018-07-21 19:44 METAR KGED 212344Z AUTO 09017G26KT 2SM RA BR SCT013 SCT020 OVC025 23/22 A2972
                 RMK AO2 PK WND 08026/2340 RAB04 P0004 T02280222 =
2018-07-21 18:54 METAR KGED 212254Z AUTO 09014G19KT 10SM SCT011 BKN025 OVC035 23/23 A2974 RMK AO2
                 RAB00E42 SLP071 P0003 T02280228 =
2018-07-21 18:23 METAR KGED 212223Z AUTO 08013KT 3SM -RA BR FEW008 BKN012 OVC021 23/22 A2975 RMK
                 AO2 RAB00 P0003 T02280222 =
2018-07-21 18:14 METAR KGED 212214Z AUTO 08015G20KT 2SM -RA BR SCT010 BKN014 OVC028 23/22 A2976
                 RMK AO2 RAB00 P0003 T02280222 =
2018-07-21 18:01 METAR KGED 212201Z AUTO 09014G21KT 7SM -RA FEW010 SCT023 BKN028 23/23 A2977 RMK
                 AO2 RAB00 P0000 T02330228 =
2018-07-21 17:54 METAR KGED 212154Z AUTO 07010KT 10SM FEW009 FEW024 BKN030 23/23 A2977 RMK AO2
                 RAE06 SLP080 P0000 T02330233 =
2018-07-21 17:30 METAR KGED 212130Z AUTO 08013KT 10SM SCT008 SCT014 BKN033 23/23 A2978 RMK AO2
                 RAE06 P0000 T02330228 =
2018-07-21 17:15 METAR KGED 212115Z AUTO 09012KT 10SM BKN010 OVC050 23/23 A2979 RMK AO2 RAE06 CIG
                 005V016 P0000 T02330233 $ =
2018-07-21 16:54 METAR KGED 212054Z AUTO 09011KT 9SM -RA BKN009 OVC060 23/23 A2980 RMK AO2 SLP091
                 P0003 60093 T02330233 57023 $ =
2018-07-21 15:58 METAR KGED 211958Z AUTO 12010G20KT 3SM RA BR BKN009 BKN014 OVC023 23/23 A2983
                 RMK AO2 P0001 T02330228 $ =
2018-07-21 15:54 METAR KGED 211954Z AUTO 14014G20KT 2 1/2SM +RA BR SCT007 BKN013 OVC028 23/23
                 A2984 RMK AO2 PK WND 09026/1858 WSHFT 1925 SLP102 P0079 T02330228 $ =
2018-07-21 15:46 METAR KGED 211946Z AUTO 13013G16KT 2SM +RA BR SCT007 BKN015 OVC032 23/23 A2984
                 RMK AO2 PK WND 09026/1858 WSHFT 1925 P0076 T02330233 $ =
2018-07-21 15:42 METAR KGED 211942Z AUTO 14009G20KT 1SM +RA SCT005 BKN009 OVC018 23/ A2984 RMK
                 AO2 PK WND 09026/1858 WSHFT 1925 P0073 T0228 $ =
2018-07-21 15:36 METAR KGED 211936Z AUTO 15017G20KT 3/4SM +RA BKN007 BKN010 OVC013 23/ A2985 RMK
                 AO2 PK WND 09026/1858 P0070 T0228 $ =
2018-07-21 15:28 METAR KGED 211928Z AUTO 09013G23KT 1 1/4SM +RA BKN007 OVC013 23/ A2983 RMK AO2
                 PK WND 09026/1858 P0050 T0228 $ =
2018-07-21 15:13 METAR KGED 211913Z AUTO 10013G21KT 3/4SM +RA OVC007 23/ A2985 RMK AO2 PK WND
                 09026/1858 P0027 T0228 $ =
2018-07-21 15:06 METAR KGED 211906Z AUTO 10014G26KT 1 3/4SM +RA OVC007 23/ A2985 RMK AO2 PK WND
                 09026/1858 P0011 T0228 $ =
2018-07-21 14:54 METAR KGED 211854Z AUTO 08014G25KT 5SM RA OVC007 23/ A2984 RMK AO2 PK WND
                 09027/1813 CIG 005V011 SLP104 P0011 T0228 $ =
2018-07-21 13:54 METAR KGED 211754Z AUTO 08016G23KT 8SM -RA OVC008 23/ A2987 RMK AO2 CIG 006V011
                 SLP115 P0001 60082 T0228 10239 20222 58026 $ =
2018-07-21 12:54 METAR KGED 211654Z AUTO 08016G27KT 9SM -RA OVC007 22/ A2990 RMK AO2 PK WND
                 09027/1650 CIG 006V010 SLP125 P0014 T0222 $ =
2018-07-21 12:14 METAR KGED 211614Z AUTO 08015G22KT 3SM RA BR OVC008 22/22 A2992 RMK AO2 CIG
                 006V012 P0012 T02220222 $ =
2018-07-21 12:01 METAR KGED 211601Z AUTO 09013G22KT 1 3/4SM +RA BR BKN008 OVC012 22/22 A2992 RMK
                 AO2 CIG 005V010 P0007 T02220222 $ =
2018-07-21 11:54 METAR KGED 211554Z AUTO 08014G25KT 4SM RA BR BKN008 OVC013 22/22 A2993 RMK AO2
                 CIG 005V010 SLP133 P0042 T02220222 $ =
2018-07-21 11:38 METAR KGED 211538Z AUTO 07016G21KT 3SM RA BR BKN008 OVC013 22/22 A2993 RMK AO2
                 P0039 T02220217 $ =
2018-07-21 11:33 METAR KGED 211533Z AUTO 08015G21KT 1 3/4SM +RA BR BKN008 OVC011 22/22 A2993 RMK
                 AO2 P0038 T02220217 $ =
2018-07-21 11:22 METAR KGED 211522Z AUTO 07012G20KT 1SM +RA BR OVC008 22/22 A2994 RMK AO2 P0030
                 T02220217 $ =
2018-07-21 11:01 METAR KGED 211501Z AUTO 07010KT 1 1/4SM RA BR BKN008 BKN012 OVC017 22/22 A2995
                 RMK AO2 P0004 T02220217 $ =
2018-07-21 10:54 METAR KGED 211454Z AUTO 07012KT 3/4SM +RA BR OVC012 22/22 A2995 RMK AO2 RAB01
                 SLP141 P0025 60025 T02220217 58012 $ =
2018-07-21 10:51 METAR KGED 211451Z AUTO 07010KT 3/4SM +RA BR BKN012 OVC017 22/22 A2995 RMK AO2
                 RAB01 P0021 $ =
2018-07-21 10:44 METAR KGED 211444Z AUTO 07011KT 1 3/4SM +RA BR BKN012 OVC017 23/22 A2996 RMK AO2
                 RAB01 P0006 T02280217 $ =
2018-07-21 10:23 METAR KGED 211423Z AUTO 07013KT 6SM -RA BR BKN014 OVC019 23/21 A2996 RMK AO2
                 RAB01 P0000 T02330211 $ =
2018-07-21 09:54 METAR KGED 211354Z AUTO 08012G20KT 10SM OVC015 24/21 A2996 RMK AO2 SLP146
                 T02390211 $ =
2018-07-21 08:54 METAR KGED 211254Z AUTO 09009KT 10SM SCT015 BKN026 OVC037 24/21 A2998 RMK AO2
                 RAE02 SLP150 P0000 T02390211 $ =

Support USWX by starting your Amazon purchase here.